sensor_id;sensor_type;location;lat;lon;timestamp;P1;durP1;ratioP1;P2;durP2;ratioP2
60233;SDS011;49514;43.538;-5.708;2023-03-09T00:31:03;4.88;;;1.50;;
60233;SDS011;49514;43.538;-5.708;2023-03-09T00:33:35;7.82;;;1.75;;
60233;SDS011;49514;43.538;-5.708;2023-03-09T00:36:02;5.15;;;1.67;;
60233;SDS011;49514;43.538;-5.708;2023-03-09T00:38:28;4.05;;;1.52;;
60233;SDS011;49514;43.538;-5.708;2023-03-09T00:40:55;5.55;;;1.30;;
60233;SDS011;49514;43.538;-5.708;2023-03-09T00:43:22;5.85;;;1.42;;
60233;SDS011;49514;43.538;-5.708;2023-03-09T00:45:48;3.80;;;1.40;;
60233;SDS011;49514;43.538;-5.708;2023-03-09T00:48:15;7.57;;;1.95;;
60233;SDS011;49514;43.538;-5.708;2023-03-09T00:50:41;6.80;;;1.60;;
60233;SDS011;49514;43.538;-5.708;2023-03-09T00:53:08;4.60;;;1.65;;
60233;SDS011;49514;43.538;-5.708;2023-03-09T00:55:35;5.45;;;1.58;;
60233;SDS011;49514;43.538;-5.708;2023-03-09T00:58:02;5.07;;;1.52;;
60233;SDS011;49514;43.538;-5.708;2023-03-09T01:00:29;7.28;;;1.90;;
60233;SDS011;49514;43.538;-5.708;2023-03-09T01:03:01;9.13;;;1.95;;
60233;SDS011;49514;43.538;-5.708;2023-03-09T01:05:27;4.93;;;1.40;;
60233;SDS011;49514;43.538;-5.708;2023-03-09T01:07:54;6.00;;;1.90;;
60233;SDS011;49514;43.538;-5.708;2023-03-09T01:10:22;6.43;;;1.60;;
60233;SDS011;49514;43.538;-5.708;2023-03-09T01:12:50;5.32;;;1.95;;
60233;SDS011;49514;43.538;-5.708;2023-03-09T01:15:16;5.28;;;1.67;;
60233;SDS011;49514;43.538;-5.708;2023-03-09T01:17:43;3.55;;;1.52;;
60233;SDS011;49514;43.538;-5.708;2023-03-09T01:20:10;4.82;;;1.17;;
60233;SDS011;49514;43.538;-5.708;2023-03-09T01:22:37;3.95;;;1.70;;
60233;SDS011;49514;43.538;-5.708;2023-03-09T01:25:05;4.57;;;1.50;;
60233;SDS011;49514;43.538;-5.708;2023-03-09T01:27:32;5.00;;;1.50;;
60233;SDS011;49514;43.538;-5.708;2023-03-09T01:29:59;4.90;;;1.58;;
60233;SDS011;49514;43.538;-5.708;2023-03-09T01:32:26;10.15;;;2.45;;
60233;SDS011;49514;43.538;-5.708;2023-03-09T01:34:53;8.98;;;2.08;;
60233;SDS011;49514;43.538;-5.708;2023-03-09T01:37:19;19.83;;;3.83;;
60233;SDS011;49514;43.538;-5.708;2023-03-09T01:39:46;21.23;;;3.75;;
60233;SDS011;49514;43.538;-5.708;2023-03-09T01:42:12;38.85;;;5.15;;
60233;SDS011;49514;43.538;-5.708;2023-03-09T01:44:40;25.17;;;4.82;;
60233;SDS011;49514;43.538;-5.708;2023-03-09T01:47:06;21.15;;;5.20;;
60233;SDS011;49514;43.538;-5.708;2023-03-09T01:54:53;22.25;;;4.70;;
60233;SDS011;49514;43.538;-5.708;2023-03-09T01:57:36;18.02;;;3.35;;
60233;SDS011;49514;43.538;-5.708;2023-03-09T02:00:09;13.95;;;3.00;;
60233;SDS011;49514;43.538;-5.708;2023-03-09T02:03:08;13.75;;;3.40;;
60233;SDS011;49514;43.538;-5.708;2023-03-09T02:05:58;17.10;;;3.30;;
60233;SDS011;49514;43.538;-5.708;2023-03-09T02:08:33;17.13;;;3.13;;
60233;SDS011;49514;43.538;-5.708;2023-03-09T02:11:06;19.13;;;7.13;;
60233;SDS011;49514;43.538;-5.708;2023-03-09T02:13:39;17.00;;;6.70;;
60233;SDS011;49514;43.538;-5.708;2023-03-09T02:16:08;12.95;;;6.50;;
60233;SDS011;49514;43.538;-5.708;2023-03-09T02:18:35;12.65;;;5.03;;
60233;SDS011;49514;43.538;-5.708;2023-03-09T02:24:28;15.55;;;5.05;;
60233;SDS011;49514;43.538;-5.708;2023-03-09T02:27:37;16.52;;;4.95;;
60233;SDS011;49514;43.538;-5.708;2023-03-09T02:29:57;22.52;;;5.50;;
60233;SDS011;49514;43.538;-5.708;2023-03-09T02:32:31;11.02;;;3.85;;
60233;SDS011;49514;43.538;-5.708;2023-03-09T02:34:58;9.68;;;3.22;;
60233;SDS011;49514;43.538;-5.708;2023-03-09T02:37:33;9.23;;;3.53;;
60233;SDS011;49514;43.538;-5.708;2023-03-09T02:40:10;12.90;;;4.30;;
60233;SDS011;49514;43.538;-5.708;2023-03-09T02:42:47;12.77;;;3.50;;
60233;SDS011;49514;43.538;-5.708;2023-03-09T02:45:17;19.17;;;4.18;;
60233;SDS011;49514;43.538;-5.708;2023-03-09T02:47:45;22.55;;;4.15;;
60233;SDS011;49514;43.538;-5.708;2023-03-09T02:50:15;19.73;;;3.90;;
60233;SDS011;49514;43.538;-5.708;2023-03-09T02:52:42;21.58;;;3.92;;
60233;SDS011;49514;43.538;-5.708;2023-03-09T02:55:11;7.47;;;1.90;;
60233;SDS011;49514;43.538;-5.708;2023-03-09T02:57:38;4.18;;;1.40;;
60233;SDS011;49514;43.538;-5.708;2023-03-09T03:00:07;2.97;;;1.30;;
60233;SDS011;49514;43.538;-5.708;2023-03-09T03:02:36;2.25;;;0.98;;
60233;SDS011;49514;43.538;-5.708;2023-03-09T03:05:04;5.15;;;1.25;;
60233;SDS011;49514;43.538;-5.708;2023-03-09T03:07:32;6.97;;;2.50;;
60233;SDS011;49514;43.538;-5.708;2023-03-09T03:09:58;37.33;;;5.32;;
60233;SDS011;49514;43.538;-5.708;2023-03-09T03:12:25;45.60;;;6.13;;
60233;SDS011;49514;43.538;-5.708;2023-03-09T03:14:52;37.88;;;5.85;;
60233;SDS011;49514;43.538;-5.708;2023-03-09T03:17:19;28.63;;;4.43;;
60233;SDS011;49514;43.538;-5.708;2023-03-09T03:19:46;9.02;;;2.45;;
60233;SDS011;49514;43.538;-5.708;2023-03-09T03:22:12;11.40;;;2.55;;
60233;SDS011;49514;43.538;-5.708;2023-03-09T03:24:39;13.07;;;2.65;;
60233;SDS011;49514;43.538;-5.708;2023-03-09T03:27:07;12.45;;;2.53;;
60233;SDS011;49514;43.538;-5.708;2023-03-09T03:29:35;10.70;;;2.88;;
60233;SDS011;49514;43.538;-5.708;2023-03-09T03:32:02;15.02;;;2.80;;
60233;SDS011;49514;43.538;-5.708;2023-03-09T03:34:29;18.38;;;3.28;;
60233;SDS011;49514;43.538;-5.708;2023-03-09T03:36:55;29.58;;;4.88;;
60233;SDS011;49514;43.538;-5.708;2023-03-09T03:39:24;32.92;;;4.57;;
60233;SDS011;49514;43.538;-5.708;2023-03-09T03:41:56;45.65;;;5.78;;
60233;SDS011;49514;43.538;-5.708;2023-03-09T03:44:23;40.55;;;5.28;;
60233;SDS011;49514;43.538;-5.708;2023-03-09T03:46:50;36.50;;;5.28;;
60233;SDS011;49514;43.538;-5.708;2023-03-09T03:49:16;31.45;;;4.47;;
60233;SDS011;49514;43.538;-5.708;2023-03-09T03:51:43;17.70;;;3.75;;
60233;SDS011;49514;43.538;-5.708;2023-03-09T03:54:10;17.90;;;3.20;;
60233;SDS011;49514;43.538;-5.708;2023-03-09T03:56:38;9.50;;;2.55;;
60233;SDS011;49514;43.538;-5.708;2023-03-09T03:59:09;12.25;;;2.95;;
60233;SDS011;49514;43.538;-5.708;2023-03-09T04:01:36;14.20;;;3.40;;
60233;SDS011;49514;43.538;-5.708;2023-03-09T04:04:06;31.25;;;5.88;;
60233;SDS011;49514;43.538;-5.708;2023-03-09T04:06:38;35.25;;;5.60;;
60233;SDS011;49514;43.538;-5.708;2023-03-09T04:09:05;32.72;;;6.13;;
60233;SDS011;49514;43.538;-5.708;2023-03-09T04:11:34;32.47;;;6.78;;
60233;SDS011;49514;43.538;-5.708;2023-03-09T04:14:01;39.20;;;7.82;;
60233;SDS011;49514;43.538;-5.708;2023-03-09T04:16:29;36.22;;;6.57;;
60233;SDS011;49514;43.538;-5.708;2023-03-09T04:18:55;39.47;;;6.47;;
60233;SDS011;49514;43.538;-5.708;2023-03-09T04:21:23;27.73;;;4.97;;
60233;SDS011;49514;43.538;-5.708;2023-03-09T04:23:50;33.85;;;4.90;;
60233;SDS011;49514;43.538;-5.708;2023-03-09T04:26:17;23.98;;;3.80;;
60233;SDS011;49514;43.538;-5.708;2023-03-09T04:28:51;17.63;;;3.20;;
60233;SDS011;49514;43.538;-5.708;2023-03-09T04:31:19;14.82;;;3.40;;
60233;SDS011;49514;43.538;-5.708;2023-03-09T04:33:46;17.40;;;4.18;;
60233;SDS011;49514;43.538;-5.708;2023-03-09T04:36:16;32.65;;;6.07;;
60233;SDS011;49514;43.538;-5.708;2023-03-09T04:38:46;28.38;;;5.63;;
60233;SDS011;49514;43.538;-5.708;2023-03-09T04:41:13;24.30;;;4.45;;
60233;SDS011;49514;43.538;-5.708;2023-03-09T04:43:44;16.33;;;3.78;;
60233;SDS011;49514;43.538;-5.708;2023-03-09T04:46:12;11.93;;;2.92;;
60233;SDS011;49514;43.538;-5.708;2023-03-09T04:48:41;24.27;;;4.68;;
60233;SDS011;49514;43.538;-5.708;2023-03-09T04:51:08;15.73;;;4.43;;
60233;SDS011;49514;43.538;-5.708;2023-03-09T04:53:34;29.23;;;4.85;;
60233;SDS011;49514;43.538;-5.708;2023-03-09T04:56:01;28.50;;;4.65;;
60233;SDS011;49514;43.538;-5.708;2023-03-09T04:58:31;34.35;;;5.07;;
60233;SDS011;49514;43.538;-5.708;2023-03-09T05:00:58;22.98;;;4.43;;
60233;SDS011;49514;43.538;-5.708;2023-03-09T05:03:29;23.58;;;4.30;;
60233;SDS011;49514;43.538;-5.708;2023-03-09T05:05:56;29.55;;;4.95;;
60233;SDS011;49514;43.538;-5.708;2023-03-09T05:08:28;22.17;;;3.88;;
60233;SDS011;49514;43.538;-5.708;2023-03-09T05:10:54;20.27;;;4.03;;
60233;SDS011;49514;43.538;-5.708;2023-03-09T05:13:22;19.63;;;5.10;;
60233;SDS011;49514;43.538;-5.708;2023-03-09T05:15:49;32.95;;;4.90;;
60233;SDS011;49514;43.538;-5.708;2023-03-09T05:18:15;39.05;;;4.07;;
60233;SDS011;49514;43.538;-5.708;2023-03-09T05:20:42;13.52;;;3.17;;
60233;SDS011;49514;43.538;-5.708;2023-03-09T05:23:09;15.02;;;2.50;;
60233;SDS011;49514;43.538;-5.708;2023-03-09T05:25:36;12.68;;;3.45;;
60233;SDS011;49514;43.538;-5.708;2023-03-09T05:28:05;15.80;;;3.65;;
60233;SDS011;49514;43.538;-5.708;2023-03-09T05:30:32;22.20;;;4.90;;
60233;SDS011;49514;43.538;-5.708;2023-03-09T05:33:03;25.98;;;5.93;;
60233;SDS011;49514;43.538;-5.708;2023-03-09T05:35:32;21.80;;;5.60;;
60233;SDS011;49514;43.538;-5.708;2023-03-09T05:38:00;36.90;;;4.72;;
60233;SDS011;49514;43.538;-5.708;2023-03-09T05:40:27;25.40;;;4.72;;
60233;SDS011;49514;43.538;-5.708;2023-03-09T05:42:58;19.98;;;4.50;;
60233;SDS011;49514;43.538;-5.708;2023-03-09T05:45:25;27.45;;;4.57;;
60233;SDS011;49514;43.538;-5.708;2023-03-09T05:47:52;24.92;;;3.97;;
60233;SDS011;49514;43.538;-5.708;2023-03-09T05:50:19;28.52;;;4.20;;
60233;SDS011;49514;43.538;-5.708;2023-03-09T05:52:46;13.15;;;3.72;;
60233;SDS011;49514;43.538;-5.708;2023-03-09T05:55:13;13.93;;;3.58;;
60233;SDS011;49514;43.538;-5.708;2023-03-09T05:57:42;16.58;;;3.58;;
60233;SDS011;49514;43.538;-5.708;2023-03-09T06:00:10;14.05;;;2.90;;
60233;SDS011;49514;43.538;-5.708;2023-03-09T06:02:42;14.48;;;3.10;;
60233;SDS011;49514;43.538;-5.708;2023-03-09T06:05:14;9.70;;;3.00;;
60233;SDS011;49514;43.538;-5.708;2023-03-09T06:07:41;21.38;;;4.72;;
60233;SDS011;49514;43.538;-5.708;2023-03-09T06:10:09;28.13;;;5.75;;
60233;SDS011;49514;43.538;-5.708;2023-03-09T06:12:36;24.90;;;5.50;;
60233;SDS011;49514;43.538;-5.708;2023-03-09T06:15:03;23.88;;;4.70;;
60233;SDS011;49514;43.538;-5.708;2023-03-09T06:17:31;20.98;;;5.53;;
60233;SDS011;49514;43.538;-5.708;2023-03-09T06:20:00;25.48;;;4.50;;
60233;SDS011;49514;43.538;-5.708;2023-03-09T06:22:28;25.00;;;5.25;;
60233;SDS011;49514;43.538;-5.708;2023-03-09T06:24:56;30.60;;;5.32;;
60233;SDS011;49514;43.538;-5.708;2023-03-09T06:27:22;28.73;;;5.35;;
60233;SDS011;49514;43.538;-5.708;2023-03-09T06:29:49;29.83;;;5.40;;
60233;SDS011;49514;43.538;-5.708;2023-03-09T06:32:18;29.33;;;5.18;;
60233;SDS011;49514;43.538;-5.708;2023-03-09T06:34:45;24.60;;;4.78;;
60233;SDS011;49514;43.538;-5.708;2023-03-09T06:37:13;36.22;;;5.20;;
60233;SDS011;49514;43.538;-5.708;2023-03-09T06:39:41;21.63;;;4.35;;
60233;SDS011;49514;43.538;-5.708;2023-03-09T06:42:10;19.20;;;5.22;;
60233;SDS011;49514;43.538;-5.708;2023-03-09T06:44:41;12.90;;;3.65;;
60233;SDS011;49514;43.538;-5.708;2023-03-09T06:47:09;14.48;;;3.58;;
60233;SDS011;49514;43.538;-5.708;2023-03-09T06:49:37;14.95;;;3.70;;
60233;SDS011;49514;43.538;-5.708;2023-03-09T06:52:09;10.93;;;3.42;;
60233;SDS011;49514;43.538;-5.708;2023-03-09T06:54:35;19.92;;;3.63;;
60233;SDS011;49514;43.538;-5.708;2023-03-09T06:57:10;15.25;;;3.92;;
60233;SDS011;49514;43.538;-5.708;2023-03-09T06:59:38;12.15;;;2.65;;
60233;SDS011;49514;43.538;-5.708;2023-03-09T07:02:05;7.63;;;2.50;;
60233;SDS011;49514;43.538;-5.708;2023-03-09T07:04:31;16.65;;;3.08;;
60233;SDS011;49514;43.538;-5.708;2023-03-09T07:06:58;14.35;;;3.90;;
60233;SDS011;49514;43.538;-5.708;2023-03-09T07:09:25;26.20;;;4.35;;
60233;SDS011;49514;43.538;-5.708;2023-03-09T07:11:51;20.30;;;4.60;;
60233;SDS011;49514;43.538;-5.708;2023-03-09T07:14:19;21.55;;;3.85;;
60233;SDS011;49514;43.538;-5.708;2023-03-09T07:16:53;11.98;;;3.35;;
60233;SDS011;49514;43.538;-5.708;2023-03-09T07:19:20;17.85;;;4.22;;
60233;SDS011;49514;43.538;-5.708;2023-03-09T07:21:48;23.30;;;4.40;;
60233;SDS011;49514;43.538;-5.708;2023-03-09T07:24:15;19.52;;;5.10;;
60233;SDS011;49514;43.538;-5.708;2023-03-09T07:26:42;40.08;;;4.70;;
60233;SDS011;49514;43.538;-5.708;2023-03-09T07:29:09;26.75;;;4.63;;
60233;SDS011;49514;43.538;-5.708;2023-03-09T07:31:35;18.42;;;4.20;;
60233;SDS011;49514;43.538;-5.708;2023-03-09T07:34:02;22.20;;;4.05;;
60233;SDS011;49514;43.538;-5.708;2023-03-09T07:36:29;29.77;;;6.28;;
60233;SDS011;49514;43.538;-5.708;2023-03-09T07:38:55;23.77;;;4.78;;
60233;SDS011;49514;43.538;-5.708;2023-03-09T07:41:22;21.38;;;4.75;;
60233;SDS011;49514;43.538;-5.708;2023-03-09T07:43:48;19.80;;;4.88;;
60233;SDS011;49514;43.538;-5.708;2023-03-09T07:46:20;28.60;;;5.00;;
60233;SDS011;49514;43.538;-5.708;2023-03-09T07:48:48;21.15;;;5.70;;
60233;SDS011;49514;43.538;-5.708;2023-03-09T07:51:14;28.23;;;6.73;;
60233;SDS011;49514;43.538;-5.708;2023-03-09T07:53:41;26.27;;;6.25;;
60233;SDS011;49514;43.538;-5.708;2023-03-09T07:56:07;24.95;;;5.82;;
60233;SDS011;49514;43.538;-5.708;2023-03-09T07:58:35;29.30;;;6.32;;
60233;SDS011;49514;43.538;-5.708;2023-03-09T08:01:03;29.10;;;6.70;;
60233;SDS011;49514;43.538;-5.708;2023-03-09T08:03:32;26.83;;;6.22;;
60233;SDS011;49514;43.538;-5.708;2023-03-09T08:06:01;28.55;;;7.00;;
60233;SDS011;49514;43.538;-5.708;2023-03-09T08:08:31;24.08;;;6.13;;
60233;SDS011;49514;43.538;-5.708;2023-03-09T08:10:59;26.97;;;6.60;;
60233;SDS011;49514;43.538;-5.708;2023-03-09T08:13:25;25.40;;;6.60;;
60233;SDS011;49514;43.538;-5.708;2023-03-09T08:15:52;26.50;;;5.65;;
60233;SDS011;49514;43.538;-5.708;2023-03-09T08:18:19;19.42;;;5.25;;
60233;SDS011;49514;43.538;-5.708;2023-03-09T08:20:46;14.93;;;4.60;;
60233;SDS011;49514;43.538;-5.708;2023-03-09T08:23:12;29.30;;;7.07;;
60233;SDS011;49514;43.538;-5.708;2023-03-09T08:25:40;25.48;;;6.50;;
60233;SDS011;49514;43.538;-5.708;2023-03-09T08:28:07;38.05;;;8.27;;
60233;SDS011;49514;43.538;-5.708;2023-03-09T08:30:35;30.53;;;7.37;;
60233;SDS011;49514;43.538;-5.708;2023-03-09T08:33:04;36.80;;;6.50;;
60233;SDS011;49514;43.538;-5.708;2023-03-09T08:35:32;22.10;;;4.80;;
60233;SDS011;49514;43.538;-5.708;2023-03-09T08:37:59;29.45;;;6.28;;
60233;SDS011;49514;43.538;-5.708;2023-03-09T08:40:26;23.70;;;5.77;;
60233;SDS011;49514;43.538;-5.708;2023-03-09T08:42:53;34.80;;;6.50;;
60233;SDS011;49514;43.538;-5.708;2023-03-09T08:45:19;42.03;;;7.50;;
60233;SDS011;49514;43.538;-5.708;2023-03-09T08:47:46;42.55;;;7.40;;
60233;SDS011;49514;43.538;-5.708;2023-03-09T08:50:13;39.20;;;7.50;;
60233;SDS011;49514;43.538;-5.708;2023-03-09T08:52:39;44.07;;;8.10;;
60233;SDS011;49514;43.538;-5.708;2023-03-09T08:55:07;43.55;;;7.30;;
60233;SDS011;49514;43.538;-5.708;2023-03-09T08:57:35;36.50;;;8.47;;
60233;SDS011;49514;43.538;-5.708;2023-03-09T09:00:03;37.87;;;7.50;;
60233;SDS011;49514;43.538;-5.708;2023-03-09T09:02:36;38.53;;;7.50;;
60233;SDS011;49514;43.538;-5.708;2023-03-09T09:05:03;44.05;;;8.25;;
60233;SDS011;49514;43.538;-5.708;2023-03-09T09:07:30;45.33;;;9.05;;
60233;SDS011;49514;43.538;-5.708;2023-03-09T09:09:56;51.53;;;9.40;;
60233;SDS011;49514;43.538;-5.708;2023-03-09T09:12:24;42.53;;;7.93;;
60233;SDS011;49514;43.538;-5.708;2023-03-09T09:14:54;48.63;;;7.03;;
60233;SDS011;49514;43.538;-5.708;2023-03-09T09:17:21;41.40;;;7.05;;
60233;SDS011;49514;43.538;-5.708;2023-03-09T09:19:48;39.85;;;7.00;;
60233;SDS011;49514;43.538;-5.708;2023-03-09T09:22:14;40.53;;;7.83;;
60233;SDS011;49514;43.538;-5.708;2023-03-09T09:24:41;36.33;;;7.15;;
60233;SDS011;49514;43.538;-5.708;2023-03-09T09:27:08;41.45;;;6.18;;
60233;SDS011;49514;43.538;-5.708;2023-03-09T09:29:36;39.20;;;6.93;;
60233;SDS011;49514;43.538;-5.708;2023-03-09T09:32:03;29.58;;;5.70;;
60233;SDS011;49514;43.538;-5.708;2023-03-09T09:34:31;31.95;;;5.25;;
60233;SDS011;49514;43.538;-5.708;2023-03-09T09:37:01;34.78;;;5.72;;
60233;SDS011;49514;43.538;-5.708;2023-03-09T09:39:28;26.45;;;4.75;;
60233;SDS011;49514;43.538;-5.708;2023-03-09T09:41:57;24.05;;;5.20;;
60233;SDS011;49514;43.538;-5.708;2023-03-09T09:44:34;36.05;;;6.65;;
60233;SDS011;49514;43.538;-5.708;2023-03-09T09:47:06;33.50;;;7.28;;
60233;SDS011;49514;43.538;-5.708;2023-03-09T09:49:39;35.67;;;5.60;;
60233;SDS011;49514;43.538;-5.708;2023-03-09T10:00:22;7.13;;;1.70;;
60233;SDS011;49514;43.538;-5.708;2023-03-09T10:03:08;12.35;;;1.88;;
60233;SDS011;49514;43.538;-5.708;2023-03-09T10:05:46;11.25;;;2.15;;
60233;SDS011;49514;43.538;-5.708;2023-03-09T10:11:19;15.60;;;1.95;;
60233;SDS011;49514;43.538;-5.708;2023-03-09T10:13:51;20.58;;;2.45;;
60233;SDS011;49514;43.538;-5.708;2023-03-09T10:31:22;12.00;;;2.90;;
60233;SDS011;49514;43.538;-5.708;2023-03-09T10:33:56;19.30;;;2.80;;
60233;SDS011;49514;43.538;-5.708;2023-03-09T11:14:52;18.33;;;1.55;;
60233;SDS011;49514;43.538;-5.708;2023-03-09T11:28:14;10.73;;;1.73;;
60233;SDS011;49514;43.538;-5.708;2023-03-09T11:30:42;7.20;;;0.90;;
60233;SDS011;49514;43.538;-5.708;2023-03-09T11:33:12;10.20;;;1.13;;
60233;SDS011;49514;43.538;-5.708;2023-03-09T11:38:12;14.07;;;2.17;;
60233;SDS011;49514;43.538;-5.708;2023-03-09T12:12:07;41.80;;;4.13;;
60233;SDS011;49514;43.538;-5.708;2023-03-09T13:24:13;5.45;;;0.55;;
60233;SDS011;49514;43.538;-5.708;2023-03-09T13:29:15;16.85;;;2.50;;
60233;SDS011;49514;43.538;-5.708;2023-03-09T13:31:47;40.25;;;6.18;;
60233;SDS011;49514;43.538;-5.708;2023-03-09T13:34:15;20.48;;;2.05;;
60233;SDS011;49514;43.538;-5.708;2023-03-09T13:36:47;13.20;;;1.50;;
60233;SDS011;49514;43.538;-5.708;2023-03-09T13:39:20;13.32;;;1.83;;
60233;SDS011;49514;43.538;-5.708;2023-03-09T13:41:50;4.78;;;0.60;;
60233;SDS011;49514;43.538;-5.708;2023-03-09T13:59:25;7.70;;;1.30;;
60233;SDS011;49514;43.538;-5.708;2023-03-09T14:11:47;17.83;;;1.83;;
60233;SDS011;49514;43.538;-5.708;2023-03-09T14:16:44;17.98;;;1.95;;
60233;SDS011;49514;43.538;-5.708;2023-03-09T14:26:51;8.80;;;1.30;;
60233;SDS011;49514;43.538;-5.708;2023-03-09T14:34:56;8.15;;;0.90;;
60233;SDS011;49514;43.538;-5.708;2023-03-09T14:37:24;11.50;;;1.70;;
60233;SDS011;49514;43.538;-5.708;2023-03-09T14:39:56;16.30;;;1.80;;
60233;SDS011;49514;43.538;-5.708;2023-03-09T14:47:25;17.85;;;2.05;;
60233;SDS011;49514;43.538;-5.708;2023-03-09T14:49:53;4.18;;;1.10;;
60233;SDS011;49514;43.538;-5.708;2023-03-09T14:52:20;10.00;;;1.65;;
60233;SDS011;49514;43.538;-5.708;2023-03-09T14:54:47;6.05;;;1.45;;
60233;SDS011;49514;43.538;-5.708;2023-03-09T14:57:15;19.77;;;2.17;;
60233;SDS011;49514;43.538;-5.708;2023-03-09T14:59:42;19.23;;;3.45;;
60233;SDS011;49514;43.538;-5.708;2023-03-09T15:02:11;31.55;;;2.50;;
60233;SDS011;49514;43.538;-5.708;2023-03-09T15:04:40;20.52;;;2.92;;
60233;SDS011;49514;43.538;-5.708;2023-03-09T15:07:09;19.73;;;3.45;;
60233;SDS011;49514;43.538;-5.708;2023-03-09T15:09:42;10.43;;;1.90;;
60233;SDS011;49514;43.538;-5.708;2023-03-09T15:14:45;14.27;;;1.80;;
60233;SDS011;49514;43.538;-5.708;2023-03-09T15:34:33;17.55;;;2.83;;
60233;SDS011;49514;43.538;-5.708;2023-03-09T15:37:05;19.60;;;2.33;;
60233;SDS011;49514;43.538;-5.708;2023-03-09T15:39:31;12.13;;;2.20;;
60233;SDS011;49514;43.538;-5.708;2023-03-09T15:41:58;11.90;;;1.95;;
60233;SDS011;49514;43.538;-5.708;2023-03-09T15:44:25;17.75;;;3.38;;
60233;SDS011;49514;43.538;-5.708;2023-03-09T15:46:52;21.52;;;4.03;;
60233;SDS011;49514;43.538;-5.708;2023-03-09T15:49:19;15.48;;;2.40;;
60233;SDS011;49514;43.538;-5.708;2023-03-09T15:56:40;11.80;;;2.15;;
60233;SDS011;49514;43.538;-5.708;2023-03-09T15:59:07;10.30;;;1.67;;
60233;SDS011;49514;43.538;-5.708;2023-03-09T16:01:34;13.70;;;2.00;;
60233;SDS011;49514;43.538;-5.708;2023-03-09T16:06:27;5.97;;;1.33;;
60233;SDS011;49514;43.538;-5.708;2023-03-09T16:08:54;12.85;;;2.05;;
60233;SDS011;49514;43.538;-5.708;2023-03-09T16:11:21;13.95;;;2.40;;
60233;SDS011;49514;43.538;-5.708;2023-03-09T16:13:48;29.50;;;2.97;;
60233;SDS011;49514;43.538;-5.708;2023-03-09T16:16:15;38.63;;;3.22;;
60233;SDS011;49514;43.538;-5.708;2023-03-09T16:18:42;20.65;;;2.95;;
60233;SDS011;49514;43.538;-5.708;2023-03-09T16:21:10;23.52;;;2.47;;
60233;SDS011;49514;43.538;-5.708;2023-03-09T16:23:37;35.20;;;3.40;;
60233;SDS011;49514;43.538;-5.708;2023-03-09T16:26:04;18.48;;;2.38;;
60233;SDS011;49514;43.538;-5.708;2023-03-09T16:28:33;11.80;;;1.50;;
60233;SDS011;49514;43.538;-5.708;2023-03-09T16:30:59;19.55;;;1.67;;
60233;SDS011;49514;43.538;-5.708;2023-03-09T16:33:26;10.85;;;2.00;;
60233;SDS011;49514;43.538;-5.708;2023-03-09T16:35:59;10.70;;;1.38;;
60233;SDS011;49514;43.538;-5.708;2023-03-09T16:38:27;12.25;;;1.85;;
60233;SDS011;49514;43.538;-5.708;2023-03-09T16:40:54;8.23;;;1.77;;
60233;SDS011;49514;43.538;-5.708;2023-03-09T16:43:22;34.00;;;2.45;;
60233;SDS011;49514;43.538;-5.708;2023-03-09T16:45:50;12.85;;;1.90;;
60233;SDS011;49514;43.538;-5.708;2023-03-09T16:48:20;12.90;;;1.58;;
60233;SDS011;49514;43.538;-5.708;2023-03-09T16:50:47;8.88;;;1.90;;
60233;SDS011;49514;43.538;-5.708;2023-03-09T16:53:15;14.50;;;2.05;;
60233;SDS011;49514;43.538;-5.708;2023-03-09T16:55:41;18.40;;;3.10;;
60233;SDS011;49514;43.538;-5.708;2023-03-09T16:58:08;11.20;;;1.67;;
60233;SDS011;49514;43.538;-5.708;2023-03-09T17:00:35;12.82;;;1.95;;
60233;SDS011;49514;43.538;-5.708;2023-03-09T17:03:03;12.48;;;2.20;;
60233;SDS011;49514;43.538;-5.708;2023-03-09T17:05:29;15.25;;;1.67;;
60233;SDS011;49514;43.538;-5.708;2023-03-09T17:15:17;20.40;;;2.85;;
60233;SDS011;49514;43.538;-5.708;2023-03-09T17:17:43;19.52;;;3.53;;
60233;SDS011;49514;43.538;-5.708;2023-03-09T17:20:10;22.23;;;4.20;;
60233;SDS011;49514;43.538;-5.708;2023-03-09T17:22:39;18.67;;;3.42;;
60233;SDS011;49514;43.538;-5.708;2023-03-09T17:25:06;8.73;;;1.92;;
60233;SDS011;49514;43.538;-5.708;2023-03-09T17:27:35;8.15;;;1.63;;
60233;SDS011;49514;43.538;-5.708;2023-03-09T17:30:02;18.50;;;2.40;;
60233;SDS011;49514;43.538;-5.708;2023-03-09T17:32:29;15.63;;;4.55;;
60233;SDS011;49514;43.538;-5.708;2023-03-09T17:34:56;8.57;;;1.98;;
60233;SDS011;49514;43.538;-5.708;2023-03-09T17:37:22;13.10;;;2.80;;
60233;SDS011;49514;43.538;-5.708;2023-03-09T17:39:49;11.95;;;2.42;;
60233;SDS011;49514;43.538;-5.708;2023-03-09T17:42:16;13.50;;;2.47;;
60233;SDS011;49514;43.538;-5.708;2023-03-09T17:44:43;15.75;;;1.95;;
60233;SDS011;49514;43.538;-5.708;2023-03-09T17:47:09;6.22;;;1.60;;
60233;SDS011;49514;43.538;-5.708;2023-03-09T17:49:36;13.90;;;2.00;;
60233;SDS011;49514;43.538;-5.708;2023-03-09T17:52:03;8.02;;;1.85;;
60233;SDS011;49514;43.538;-5.708;2023-03-09T17:54:32;12.65;;;1.95;;
60233;SDS011;49514;43.538;-5.708;2023-03-09T17:56:59;11.15;;;1.48;;
60233;SDS011;49514;43.538;-5.708;2023-03-09T17:59:26;10.98;;;2.15;;
60233;SDS011;49514;43.538;-5.708;2023-03-09T18:01:53;11.40;;;1.38;;
60233;SDS011;49514;43.538;-5.708;2023-03-09T18:04:19;17.65;;;1.90;;
60233;SDS011;49514;43.538;-5.708;2023-03-09T18:06:46;9.55;;;1.73;;
60233;SDS011;49514;43.538;-5.708;2023-03-09T18:09:14;16.90;;;2.28;;
60233;SDS011;49514;43.538;-5.708;2023-03-09T18:11:40;7.25;;;1.58;;
60233;SDS011;49514;43.538;-5.708;2023-03-09T18:14:07;12.88;;;1.38;;
60233;SDS011;49514;43.538;-5.708;2023-03-09T18:16:35;11.40;;;1.90;;
60233;SDS011;49514;43.538;-5.708;2023-03-09T18:19:02;9.38;;;1.73;;
60233;SDS011;49514;43.538;-5.708;2023-03-09T18:21:29;20.85;;;2.35;;
60233;SDS011;49514;43.538;-5.708;2023-03-09T18:23:56;21.35;;;2.95;;
60233;SDS011;49514;43.538;-5.708;2023-03-09T18:26:24;15.48;;;2.50;;
60233;SDS011;49514;43.538;-5.708;2023-03-09T18:28:56;26.52;;;3.20;;
60233;SDS011;49514;43.538;-5.708;2023-03-09T18:31:25;17.00;;;2.65;;
60233;SDS011;49514;43.538;-5.708;2023-03-09T18:33:53;19.13;;;2.95;;
60233;SDS011;49514;43.538;-5.708;2023-03-09T18:36:20;29.90;;;3.67;;
60233;SDS011;49514;43.538;-5.708;2023-03-09T18:38:48;28.80;;;3.53;;
60233;SDS011;49514;43.538;-5.708;2023-03-09T18:41:16;17.02;;;4.13;;
60233;SDS011;49514;43.538;-5.708;2023-03-09T18:43:44;18.75;;;3.15;;
60233;SDS011;49514;43.538;-5.708;2023-03-09T18:46:14;17.98;;;3.80;;
60233;SDS011;49514;43.538;-5.708;2023-03-09T18:48:43;16.85;;;2.90;;
60233;SDS011;49514;43.538;-5.708;2023-03-09T18:51:12;32.20;;;4.65;;
60233;SDS011;49514;43.538;-5.708;2023-03-09T18:53:40;19.42;;;2.50;;
60233;SDS011;49514;43.538;-5.708;2023-03-09T18:56:14;26.88;;;2.35;;
60233;SDS011;49514;43.538;-5.708;2023-03-09T18:58:43;15.30;;;2.22;;
60233;SDS011;49514;43.538;-5.708;2023-03-09T19:01:10;18.92;;;3.30;;
60233;SDS011;49514;43.538;-5.708;2023-03-09T19:03:39;18.83;;;4.00;;
60233;SDS011;49514;43.538;-5.708;2023-03-09T19:06:08;13.00;;;1.40;;
60233;SDS011;49514;43.538;-5.708;2023-03-09T19:08:38;9.32;;;1.40;;
60233;SDS011;49514;43.538;-5.708;2023-03-09T19:11:08;4.13;;;1.00;;
60233;SDS011;49514;43.538;-5.708;2023-03-09T19:13:37;9.45;;;1.30;;
60233;SDS011;49514;43.538;-5.708;2023-03-09T19:16:04;11.70;;;2.83;;
60233;SDS011;49514;43.538;-5.708;2023-03-09T19:18:34;4.28;;;0.90;;
60233;SDS011;49514;43.538;-5.708;2023-03-09T19:21:08;5.28;;;1.10;;
60233;SDS011;49514;43.538;-5.708;2023-03-09T19:23:36;4.30;;;0.80;;
60233;SDS011;49514;43.538;-5.708;2023-03-09T19:26:04;6.90;;;1.08;;
60233;SDS011;49514;43.538;-5.708;2023-03-09T19:28:31;4.82;;;0.85;;
60233;SDS011;49514;43.538;-5.708;2023-03-09T19:33:29;4.80;;;1.25;;